createdAt,value
2018-12-29T00:00:23.979Z,99.99
2018-12-29T00:01:24.382Z,99.99
2018-12-29T00:02:26.077Z,99.99
2018-12-29T00:03:26.491Z,99.99
2018-12-29T00:04:27.460Z,99.99
2018-12-29T00:05:28.153Z,99.99
2018-12-29T00:06:29.286Z,99.99
2018-12-29T00:07:30.497Z,99.99
2018-12-29T00:08:30.912Z,99.99
2018-12-29T00:09:32.328Z,99.99
2018-12-29T00:10:32.742Z,99.99
2018-12-29T00:11:33.304Z,99.99
2018-12-29T00:12:33.999Z,99.99
2018-12-29T00:13:34.413Z,99.99
2018-12-29T00:14:35.546Z,99.99
2018-12-29T00:15:36.235Z,99.99
2018-12-29T00:16:36.650Z,99.99
2018-12-29T00:17:37.061Z,99.99
2018-12-29T00:18:38.197Z,99.99
2018-12-29T00:19:38.886Z,99.99
2018-12-29T00:20:40.303Z,99.99
2018-12-29T00:21:40.570Z,99.99
2018-12-29T00:22:41.706Z,99.99
2018-12-29T00:23:42.681Z,99.99
2018-12-29T00:24:43.372Z,99.99
2018-12-29T00:25:43.787Z,99.99
2018-12-29T00:26:44.758Z,99.99
2018-12-29T00:27:44.962Z,99.99
2018-12-29T00:28:45.375Z,99.99
2018-12-29T00:29:46.151Z,99.99
2018-12-29T00:30:46.843Z,99.99
2018-12-29T00:31:47.385Z,99.99
2018-12-29T00:32:47.801Z,99.99
2018-12-29T00:33:48.214Z,99.99
2018-12-29T00:34:48.904Z,99.99
2018-12-29T00:35:49.315Z,99.99
2018-12-29T00:36:50.455Z,99.99
2018-12-29T00:37:51.150Z,99.99
2018-12-29T00:38:51.289Z,99.99
2018-12-29T00:39:51.711Z,99.99
2018-12-29T00:40:52.679Z,99.99
2018-12-29T00:41:53.245Z,99.99
2018-12-29T00:42:53.659Z,99.99
2018-12-29T00:43:54.350Z,99.99
2018-12-29T00:45:03.320Z,99.99
2018-12-29T00:45:07.214Z,99.99
2018-12-29T00:46:07.531Z,99.99
2018-12-29T00:47:08.222Z,99.99
2018-12-29T00:48:09.190Z,99.99
2018-12-29T00:49:10.605Z,99.99
2018-12-29T00:50:11.017Z,99.99
2018-12-29T00:51:11.713Z,99.99
2018-12-29T00:52:12.198Z,99.99
2018-12-29T00:53:12.610Z,99.99
2018-12-29T00:54:14.307Z,99.99
2018-12-29T00:55:14.277Z,99.99
2018-12-29T00:56:14.826Z,99.99
2018-12-29T00:57:15.515Z,99.99
2018-12-29T00:58:15.989Z,99.99
2018-12-29T00:59:17.748Z,99.99
2018-12-29T01:00:18.163Z,99.99
2018-12-29T01:01:18.579Z,99.99
2018-12-29T01:02:19.274Z,99.99
2018-12-29T01:03:19.768Z,99.99
2018-12-29T01:04:20.738Z,99.99
2018-12-29T01:05:21.872Z,99.99
2018-12-29T01:06:22.482Z,99.99
2018-12-29T01:07:23.940Z,99.99
2018-12-29T01:08:24.352Z,99.99
2018-12-29T01:09:25.543Z,99.99
2018-12-29T01:10:25.679Z,99.99
2018-12-29T01:11:26.372Z,99.99
2018-12-29T01:12:27.063Z,99.99
2018-12-29T01:13:28.040Z,99.99
2018-12-29T01:14:28.730Z,99.99
2018-12-29T01:15:29.418Z,99.99
2018-12-29T01:16:30.217Z,99.99
2018-12-29T01:17:30.621Z,99.99
2018-12-29T01:18:31.748Z,99.99
2018-12-29T01:19:32.987Z,99.99
2018-12-29T01:20:33.675Z,99.99
2018-12-29T01:21:34.357Z,99.99
2018-12-29T01:22:35.151Z,99.99
2018-12-29T01:23:35.623Z,99.99
2018-12-29T01:24:36.748Z,99.99
2018-12-29T01:25:37.878Z,99.99
2018-12-29T01:26:39.246Z,99.99
2018-12-29T01:27:39.654Z,99.99
2018-12-29T01:28:40.057Z,99.99
2018-12-29T01:29:40.743Z,99.99
2018-12-29T01:30:41.425Z,99.99
2018-12-29T01:31:42.105Z,99.99
2018-12-29T01:32:42.510Z,99.99
2018-12-29T01:33:43.469Z,99.99
2018-12-29T01:34:43.715Z,99.99
2018-12-29T01:35:45.119Z,99.99
2018-12-29T01:36:45.228Z,99.99
2018-12-29T01:37:45.631Z,99.99
2018-12-29T01:38:46.758Z,99.99
2018-12-29T01:39:47.162Z,99.99
2018-12-29T01:40:47.844Z,99.99
2018-12-29T01:41:49.282Z,99.99
2018-12-29T01:42:49.409Z,99.99
2018-12-29T01:43:50.531Z,99.99
2018-12-29T01:44:51.976Z,99.99
2018-12-29T01:45:52.674Z,99.99
2018-12-29T01:46:53.485Z,99.99
2018-12-29T01:47:54.178Z,99.99
2018-12-29T01:48:55.306Z,99.99
2018-12-29T01:49:56.431Z,99.99
2018-12-29T01:50:56.850Z,99.99
2018-12-29T01:51:57.532Z,99.99
2018-12-29T01:52:59.209Z,99.99
2018-12-29T01:53:59.669Z,99.99
2018-12-29T01:55:00.387Z,99.99
2018-12-29T01:56:01.637Z,99.99
2018-12-29T01:57:02.091Z,99.99
2018-12-29T01:58:03.087Z,99.99
2018-12-29T01:59:03.770Z,99.99
2018-12-29T02:00:03.729Z,99.99
2018-12-29T02:01:04.854Z,99.99
2018-12-29T02:02:05.981Z,99.99
2018-12-29T02:03:07.386Z,99.99
2018-12-29T02:04:07.799Z,99.99
2018-12-29T02:05:08.755Z,99.99
2018-12-29T02:06:10.438Z,99.99
2018-12-29T02:07:11.266Z,99.99
2018-12-29T02:08:11.738Z,99.99
2018-12-29T02:09:12.140Z,99.99
2018-12-29T02:10:13.546Z,99.99
2018-12-29T02:11:14.227Z,99.99
2018-12-29T02:12:15.259Z,99.99
2018-12-29T02:13:15.660Z,99.99
2018-12-29T02:14:16.623Z,99.99
2018-12-29T02:15:16.583Z,99.99
2018-12-29T02:15:28.884Z,99.99
2018-12-29T02:16:29.319Z,99.99
2018-12-29T02:17:29.998Z,99.99
2018-12-29T02:18:30.684Z,99.99
2018-12-29T02:19:31.143Z,99.99
2018-12-29T02:20:31.826Z,99.99
2018-12-29T02:21:32.228Z,99.99
2018-12-29T02:22:33.128Z,99.99
2018-12-29T02:23:33.364Z,99.99
2018-12-29T02:24:34.345Z,99.99
2018-12-29T02:25:34.468Z,99.99
2018-12-29T02:26:35.081Z,99.99
2018-12-29T02:27:35.484Z,99.99
2018-12-29T02:28:36.443Z,99.99
2018-12-29T02:29:37.406Z,99.99
2018-12-29T02:30:38.370Z,99.99
2018-12-29T02:31:39.341Z,99.99
2018-12-29T02:32:40.579Z,99.99
2018-12-29T02:33:40.985Z,99.99
2018-12-29T02:34:41.669Z,99.99
2018-12-29T02:35:42.907Z,99.99
2018-12-29T02:36:43.589Z,99.99
2018-12-29T02:37:44.548Z,99.99
2018-12-29T02:38:45.789Z,99.99
2018-12-29T02:39:46.749Z,99.99
2018-12-29T02:40:47.709Z,99.99
2018-12-29T02:41:47.670Z,99.99
2018-12-29T02:42:48.352Z,99.99
2018-12-29T02:43:48.829Z,99.99
2018-12-29T02:44:49.801Z,99.99
2018-12-29T02:45:50.271Z,99.99
2018-12-29T02:46:50.657Z,99.99
2018-12-29T02:47:51.626Z,99.99
2018-12-29T02:48:52.430Z,99.99
2018-12-29T02:49:52.839Z,99.99
2018-12-29T02:50:53.258Z,99.99
2018-12-29T02:51:54.413Z,99.99
2018-12-29T02:52:54.818Z,99.99
2018-12-29T02:53:55.497Z,99.99
2018-12-29T02:54:56.466Z,99.99
2018-12-29T02:55:56.947Z,99.99
2018-12-29T02:56:57.758Z,99.99
2018-12-29T02:57:58.531Z,99.99
2018-12-29T02:58:59.774Z,99.99
2018-12-29T03:00:00.385Z,99.99
2018-12-29T03:01:01.642Z,99.99
2018-12-29T03:02:01.625Z,99.99
2018-12-29T03:03:02.304Z,99.99
2018-12-29T03:04:02.661Z,99.99
2018-12-29T03:05:02.622Z,99.99
2018-12-29T03:06:03.026Z,99.99
2018-12-29T03:07:03.664Z,99.99
2018-12-29T03:08:04.625Z,99.99
2018-12-29T03:09:05.382Z,99.99
2018-12-29T03:10:05.340Z,99.99
2018-12-29T03:11:05.864Z,99.99
2018-12-29T03:12:06.268Z,99.99
2018-12-29T03:13:06.959Z,99.99
2018-12-29T03:14:07.635Z,99.99
2018-12-29T03:15:09.162Z,99.99
2018-12-29T03:16:09.403Z,99.99
2018-12-29T03:17:10.638Z,99.99
2018-12-29T03:18:11.039Z,99.99
2018-12-29T03:19:12.000Z,99.99
2018-12-29T03:20:12.126Z,99.99
2018-12-29T03:21:16.038Z,99.99
2018-12-29T03:22:14.403Z,99.99
2018-12-29T03:23:15.087Z,99.99
2018-12-29T03:24:14.772Z,99.99
2018-12-29T03:25:16.008Z,99.99
2018-12-29T03:26:17.242Z,99.99
2018-12-29T03:27:18.062Z,99.99
2018-12-29T03:28:18.299Z,99.99
2018-12-29T03:29:19.264Z,99.99
2018-12-29T03:30:20.785Z,99.99
2018-12-29T03:31:21.324Z,99.99
2018-12-29T03:32:22.708Z,99.99
2018-12-29T03:33:23.820Z,99.99
2018-12-29T03:34:24.501Z,99.99
2018-12-29T03:35:25.179Z,99.99
2018-12-29T03:36:26.310Z,99.99
2018-12-29T03:37:27.675Z,99.99
2018-12-29T03:38:28.366Z,99.99
2018-12-29T03:39:29.054Z,99.99
2018-12-29T03:40:30.038Z,99.99
2018-12-29T03:41:30.998Z,99.99
2018-12-29T03:42:31.965Z,99.99
2018-12-29T03:43:32.935Z,99.99
2018-12-29T03:44:32.900Z,99.99
2018-12-29T03:45:34.140Z,99.99
2018-12-29T03:46:34.833Z,99.99
2018-12-29T03:47:35.437Z,99.99
2018-12-29T03:48:36.680Z,99.99
2018-12-29T03:49:37.801Z,99.99
2018-12-29T03:50:38.204Z,99.99
2018-12-29T03:51:39.443Z,99.99
2018-12-29T03:52:39.406Z,99.99
2018-12-29T03:53:40.093Z,99.99
2018-12-29T03:54:41.330Z,99.99
2018-12-29T03:55:42.014Z,99.99
2018-12-29T03:56:43.527Z,99.99
2018-12-29T03:57:44.200Z,99.99
2018-12-29T03:58:45.165Z,99.99
2018-12-29T03:59:46.141Z,99.99
2018-12-29T04:00:46.818Z,99.99
2018-12-29T04:01:47.513Z,99.99
2018-12-29T04:02:48.193Z,99.99
2018-12-29T04:03:48.448Z,99.99
2018-12-29T04:04:50.417Z,99.99
2018-12-29T04:05:50.937Z,99.99
2018-12-29T04:06:51.620Z,99.99
2018-12-29T04:07:52.284Z,99.99
2018-12-29T04:08:52.800Z,99.99
2018-12-29T04:09:53.763Z,99.99
2018-12-29T04:10:55.285Z,99.99
2018-12-29T04:11:54.965Z,99.99
2018-12-29T04:12:55.936Z,99.99
2018-12-29T04:13:57.185Z,99.99
2018-12-29T04:14:58.145Z,99.99
2018-12-29T04:15:59.510Z,99.99
2018-12-29T04:16:59.642Z,99.99
2018-12-29T04:18:00.771Z,99.99
2018-12-29T04:19:00.869Z,99.99
2018-12-29T04:20:02.122Z,99.99
2018-12-29T04:21:02.377Z,99.99
2018-12-29T04:22:03.063Z,99.99
2018-12-29T04:23:04.694Z,99.99
2018-12-29T04:24:05.101Z,99.99
2018-12-29T04:25:05.507Z,99.99
2018-12-29T04:26:06.480Z,99.99
2018-12-29T04:27:07.718Z,99.99
2018-12-29T04:28:07.803Z,99.99
2018-12-29T04:29:09.208Z,99.99
2018-12-29T04:30:09.612Z,99.85
2018-12-29T04:31:10.755Z,99.38
2018-12-29T04:32:12.433Z,99.19
2018-12-29T04:33:12.843Z,98.81
2018-12-29T04:34:14.526Z,99.19
2018-12-29T04:35:14.485Z,99.95
2018-12-29T04:36:14.892Z,99.99
2018-12-29T04:37:15.133Z,99.99
2018-12-29T04:38:15.517Z,99.76
2018-12-29T04:39:16.200Z,99.38
2018-12-29T04:40:16.159Z,98.81
2018-12-29T04:41:17.181Z,98.71
2018-12-29T04:42:17.586Z,99
2018-12-29T04:43:17.990Z,99.61
2018-12-29T04:44:18.671Z,99.8
2018-12-29T04:45:20.083Z,99.99
2018-12-29T04:46:20.767Z,99.99
2018-12-29T04:47:21.893Z,99.99
2018-12-29T04:48:23.273Z,99.99
2018-12-29T04:49:23.511Z,99.99
2018-12-29T04:50:24.195Z,99.99
2018-12-29T04:51:24.877Z,99.99
2018-12-29T04:52:25.281Z,99.99
2018-12-29T04:53:26.405Z,99.99
2018-12-29T04:54:27.371Z,99.99
2018-12-29T04:55:27.496Z,99.99
2018-12-29T04:56:28.258Z,99.99
2018-12-29T04:57:28.663Z,99.99
2018-12-29T04:58:29.196Z,99.99
2018-12-29T04:59:29.877Z,99.99
2018-12-29T05:00:30.291Z,99.99
2018-12-29T05:01:30.763Z,99.99
2018-12-29T05:02:30.888Z,99.99
2018-12-29T05:03:32.294Z,99.99
2018-12-29T05:04:33.249Z,99.99
2018-12-29T05:05:34.209Z,99.99
2018-12-29T05:06:35.610Z,99.99
2018-12-29T05:07:36.578Z,99.99
2018-12-29T05:08:37.237Z,99.99
2018-12-29T05:09:37.920Z,99.99
2018-12-29T05:10:38.602Z,99.99
2018-12-29T05:11:39.285Z,99.99
2018-12-29T05:12:40.692Z,99.99
2018-12-29T05:13:41.097Z,99.99
2018-12-29T05:14:42.058Z,99.99
2018-12-29T05:15:43.298Z,99.99
2018-12-29T05:16:44.049Z,99.99
2018-12-29T05:17:44.732Z,99.99
2018-12-29T05:18:45.281Z,99.99
2018-12-29T05:19:46.454Z,99.99
2018-12-29T05:20:47.415Z,99.99
2018-12-29T05:21:48.377Z,99.99
2018-12-29T05:22:48.785Z,99.99
2018-12-29T05:23:49.188Z,99.99
2018-12-29T05:24:49.871Z,99.99
2018-12-29T05:25:50.276Z,99.99
2018-12-29T05:26:50.958Z,99.99
2018-12-29T05:27:52.083Z,99.99
2018-12-29T05:28:53.188Z,99.99
2018-12-29T05:29:53.589Z,99.99
2018-12-29T05:30:55.273Z,99.99
2018-12-29T05:31:55.400Z,99.99
2018-12-29T05:32:55.803Z,99.99
2018-12-29T05:33:56.042Z,99.99
2018-12-29T05:34:57.000Z,99.99
2018-12-29T05:35:57.958Z,99.99
2018-12-29T05:36:58.380Z,99.99
2018-12-29T05:37:59.342Z,99.99
2018-12-29T05:39:00.448Z,99.99
2018-12-29T05:40:01.197Z,99.99
2018-12-29T05:41:01.601Z,99.99
2018-12-29T05:42:02.563Z,99.99
2018-12-29T05:43:03.245Z,99.99
2018-12-29T05:44:03.927Z,99.99
2018-12-29T05:45:04.779Z,99.99
2018-12-29T05:46:05.460Z,99.99
2018-12-29T05:47:06.421Z,99.99
2018-12-29T05:48:07.101Z,99.99
2018-12-29T05:49:07.918Z,99.99
2018-12-29T05:50:09.158Z,99.99
2018-12-29T05:51:09.564Z,99.99
2018-12-29T05:52:09.970Z,99.99
2018-12-29T05:53:10.651Z,99.99
2018-12-29T05:54:11.890Z,99.99
2018-12-29T05:55:11.850Z,99.99
2018-12-29T05:56:12.557Z,99.99
2018-12-29T05:57:13.245Z,99.99
2018-12-29T05:58:13.980Z,99.99
2018-12-29T05:59:15.067Z,99.99
2018-12-29T06:00:16.090Z,99.99
2018-12-29T06:01:16.775Z,99.99
2018-12-29T06:02:18.181Z,99.99
2018-12-29T06:03:18.589Z,99.99
2018-12-29T06:04:19.294Z,99.99
2018-12-29T06:05:19.978Z,99.99
2018-12-29T06:06:21.656Z,99.99
2018-12-29T06:07:22.337Z,99.99
2018-12-29T06:08:22.551Z,99.99
2018-12-29T06:09:24.195Z,99.99
2018-12-29T06:10:24.883Z,99.99
2018-12-29T06:11:25.287Z,99.99
2018-12-29T06:12:25.690Z,99.99
2018-12-29T06:13:26.097Z,99.99
2018-12-29T06:14:27.059Z,99.99
2018-12-29T06:15:27.738Z,99.99
2018-12-29T06:16:28.884Z,99.99
2018-12-29T06:17:29.576Z,99.99
2018-12-29T06:18:30.534Z,99.99
2018-12-29T06:19:31.135Z,99.99
2018-12-29T06:20:32.095Z,99.99
2018-12-29T06:21:32.779Z,99.99
2018-12-29T06:22:34.024Z,99.99
2018-12-29T06:23:34.704Z,99.99
2018-12-29T06:24:35.389Z,99.99
2018-12-29T06:25:37.106Z,99.99
2018-12-29T06:26:37.911Z,99.99
2018-12-29T06:27:38.593Z,99.99
2018-12-29T06:28:39.275Z,99.99
2018-12-29T06:29:39.529Z,99.99
2018-12-29T06:30:40.214Z,99.99
2018-12-29T06:31:41.343Z,99.99
2018-12-29T06:32:41.760Z,99.99
2018-12-29T06:33:43.001Z,99.99
2018-12-29T06:34:43.408Z,99.99
2018-12-29T06:35:44.813Z,99.99
2018-12-29T06:36:44.938Z,99.99
2018-12-29T06:37:45.343Z,99.99
2018-12-29T06:38:46.747Z,99.99
2018-12-29T06:39:47.966Z,99.99
2018-12-29T06:40:48.372Z,99.99
2018-12-29T06:41:49.630Z,99.99
2018-12-29T06:42:50.034Z,99.99
2018-12-29T06:43:50.714Z,99.99
2018-12-29T06:44:51.679Z,99.99
2018-12-29T06:45:52.806Z,99.99
2018-12-29T06:46:53.210Z,99.99
2018-12-29T06:47:53.627Z,99.99
2018-12-29T06:48:54.588Z,99.99
2018-12-29T06:49:55.554Z,99.99
2018-12-29T06:50:56.237Z,99.99
2018-12-29T06:51:56.650Z,99.99
2018-12-29T06:52:58.061Z,99.99
2018-12-29T06:53:58.802Z,99.99
2018-12-29T06:54:59.489Z,99.99
2018-12-29T06:56:00.465Z,99.99
2018-12-29T06:57:01.871Z,99.99
2018-12-29T06:58:02.280Z,99.99
2018-12-29T06:59:03.575Z,99.99
2018-12-29T07:00:04.257Z,99.99
2018-12-29T07:01:04.682Z,99.99
2018-12-29T07:02:05.647Z,99.99
2018-12-29T07:03:06.049Z,99.99
2018-12-29T07:04:07.454Z,99.99
2018-12-29T07:05:08.147Z,99.99
2018-12-29T07:06:08.663Z,99.99
2018-12-29T07:07:08.795Z,99.99
2018-12-29T07:08:09.478Z,99.99
2018-12-29T07:09:11.162Z,99.99
2018-12-29T07:10:11.994Z,99.99
2018-12-29T07:11:12.954Z,99.99
2018-12-29T07:12:14.717Z,99.99
2018-12-29T07:13:14.408Z,99.99
2018-12-29T07:14:15.366Z,99.99
2018-12-29T07:15:16.331Z,99.99
2018-12-29T07:16:16.734Z,99.99
2018-12-29T07:17:17.426Z,99.99
2018-12-29T07:18:17.834Z,99.99
2018-12-29T07:19:18.241Z,99.99
2018-12-29T07:20:19.058Z,99.99
2018-12-29T07:21:20.019Z,99.99
2018-12-29T07:22:20.703Z,99.99
2018-12-29T07:23:21.446Z,99.99
2018-12-29T07:24:21.688Z,99.99
2018-12-29T07:25:22.656Z,99.99
2018-12-29T07:26:23.066Z,99.99
2018-12-29T07:27:24.035Z,99.99
2018-12-29T07:28:25.166Z,99.99
2018-12-29T07:29:25.850Z,99.99
2018-12-29T07:30:26.670Z,99.99
2018-12-29T07:31:27.083Z,99.99
2018-12-29T07:32:27.542Z,99.99
2018-12-29T07:33:28.229Z,99.99
2018-12-29T07:34:29.361Z,99.99
2018-12-29T07:35:30.324Z,99.99
2018-12-29T07:36:30.733Z,99.99
2018-12-29T07:37:31.419Z,99.99
2018-12-29T07:38:32.828Z,99.99
2018-12-29T07:39:33.959Z,99.99
2018-12-29T07:40:34.780Z,99.99
2018-12-29T07:41:35.298Z,99.99
2018-12-29T07:42:36.262Z,99.99
2018-12-29T07:43:36.672Z,99.99
2018-12-29T07:44:38.078Z,99.99
2018-12-29T07:45:38.489Z,99.99
2018-12-29T07:46:38.896Z,99.99
2018-12-29T07:47:39.863Z,99.99
2018-12-29T07:48:40.825Z,99.99
2018-12-29T07:49:41.514Z,99.99
2018-12-29T07:50:41.902Z,99.99
2018-12-29T07:51:42.310Z,99.99
2018-12-29T07:52:42.719Z,99.99
2018-12-29T07:53:43.854Z,99.99
2018-12-29T07:54:44.535Z,99.99
2018-12-29T07:55:44.945Z,99.99
2018-12-29T07:56:45.632Z,99.99
2018-12-29T07:57:46.596Z,99.99
2018-12-29T07:58:47.561Z,99.99
2018-12-29T07:59:47.707Z,99.99
2018-12-29T08:00:49.113Z,99.99
2018-12-29T08:01:49.802Z,99.99
2018-12-29T08:02:50.486Z,99.43
2018-12-29T08:03:51.453Z,98.29
2018-12-29T08:04:52.146Z,97.82
2018-12-29T08:05:52.830Z,98.39
2018-12-29T08:06:52.960Z,98.29
2018-12-29T08:07:53.646Z,98.86
2018-12-29T08:08:54.608Z,98.96
2018-12-29T08:09:55.026Z,98.39
2018-12-29T08:10:55.406Z,98.1
2018-12-29T08:11:56.544Z,97.82
2018-12-29T08:12:57.235Z,97.82
2018-12-29T08:13:57.925Z,98.29
2018-12-29T08:14:58.333Z,98.1
2018-12-29T08:15:59.464Z,98.67
2018-12-29T08:16:59.872Z,99.62
2018-12-29T08:18:01.284Z,99.85
2018-12-29T08:19:02.247Z,99.99
2018-12-29T08:20:03.486Z,99.99
2018-12-29T08:21:03.321Z,99.99
2018-12-29T08:22:04.283Z,99.99
2018-12-29T08:23:04.971Z,99.99
2018-12-29T08:24:05.956Z,99.99
2018-12-29T08:25:06.920Z,99.99
2018-12-29T08:26:06.885Z,99.99
2018-12-29T08:27:07.852Z,99.99
2018-12-29T08:28:08.264Z,99.99
2018-12-29T08:29:08.530Z,99.99
2018-12-29T08:30:09.215Z,99.99
2018-12-29T08:31:10.330Z,99.99
2018-12-29T08:32:10.803Z,99.99
2018-12-29T08:33:11.497Z,99.99
2018-12-29T08:34:12.498Z,99.99
2018-12-29T08:35:13.190Z,99.99
2018-12-29T08:36:13.711Z,99.99
2018-12-29T08:37:14.125Z,99.99
2018-12-29T08:38:14.809Z,99.99
2018-12-29T08:39:15.219Z,99.99
2018-12-29T08:40:15.634Z,99.99
2018-12-29T08:41:18.320Z,99.99
2018-12-29T08:42:16.724Z,99.99
2018-12-29T08:43:16.998Z,99.99
2018-12-29T08:44:17.975Z,99.99
2018-12-29T08:45:19.219Z,99.99
2018-12-29T08:46:20.194Z,99.99
2018-12-29T08:47:20.605Z,99.99
2018-12-29T08:48:21.574Z,99.99
2018-12-29T08:49:22.260Z,99.99
2018-12-29T08:50:22.947Z,99.99
2018-12-29T08:51:23.772Z,99.99
2018-12-29T08:52:25.184Z,99.99
2018-12-29T08:53:25.152Z,99.99
2018-12-29T08:54:26.292Z,99.99
2018-12-29T08:55:26.737Z,99.99
2018-12-29T08:56:27.161Z,99.99
2018-12-29T08:57:27.123Z,99.99
2018-12-29T08:58:27.806Z,99.99
2018-12-29T08:59:28.492Z,99.99
2018-12-29T09:00:29.623Z,99.99
2018-12-29T09:01:30.184Z,99.99
2018-12-29T09:02:30.594Z,99.99
2018-12-29T09:03:31.290Z,99.99
2018-12-29T09:04:31.977Z,99.99
2018-12-29T09:05:32.388Z,99.99
2018-12-29T09:06:32.798Z,99.99
2018-12-29T09:07:33.210Z,99.99
2018-12-29T09:08:34.453Z,99.99
2018-12-29T09:09:35.140Z,99.99
2018-12-29T09:10:36.274Z,99.99
2018-12-29T09:11:37.359Z,99.99
2018-12-29T09:12:38.097Z,99.99
2018-12-29T09:13:39.341Z,99.99
2018-12-29T09:14:39.750Z,99.99
2018-12-29T09:15:40.162Z,99.99
2018-12-29T09:16:40.573Z,99.99
2018-12-29T09:17:41.260Z,99.99
2018-12-29T09:18:53.695Z,99.99
2018-12-29T09:19:54.101Z,99.99
2018-12-29T09:20:54.786Z,99.99
2018-12-29T09:21:55.193Z,99.99
2018-12-29T09:22:55.602Z,99.99
2018-12-29T09:23:56.290Z,99.99
2018-12-29T09:24:56.973Z,99.99
2018-12-29T09:25:57.660Z,99.99
2018-12-29T09:26:58.646Z,99.99
2018-12-29T09:27:58.775Z,99.99
2018-12-29T09:28:59.219Z,99.99
2018-12-29T09:30:00.504Z,99.99
2018-12-29T09:31:01.481Z,99.99
2018-12-29T09:32:03.019Z,99.99
2018-12-29T09:33:03.988Z,99.99
2018-12-29T09:34:04.406Z,99.99
2018-12-29T09:35:04.871Z,99.99
2018-12-29T09:36:05.283Z,99.99
2018-12-29T09:37:06.801Z,99.99
2018-12-29T09:38:07.495Z,99.99
2018-12-29T09:39:08.179Z,99.99
2018-12-29T09:40:08.712Z,99.99
2018-12-29T09:41:09.861Z,99.99
2018-12-29T09:42:11.152Z,99.99
2018-12-29T09:43:12.120Z,99.99
2018-12-29T09:44:12.808Z,99.99
2018-12-29T09:45:13.218Z,99.99
2018-12-29T09:46:13.909Z,99.99
2018-12-29T09:47:20.728Z,99.99
2018-12-29T09:47:27.348Z,99.99
2018-12-29T09:48:28.036Z,99.99
2018-12-29T09:49:28.723Z,99.99
2018-12-29T09:50:29.410Z,99.99
2018-12-29T09:51:31.320Z,99.99
2018-12-29T09:52:31.733Z,99.99
2018-12-29T09:53:32.692Z,99.99
2018-12-29T09:54:32.891Z,99.99
2018-12-29T09:55:34.025Z,99.99
2018-12-29T09:56:35.265Z,99.99
2018-12-29T09:57:35.509Z,99.99
2018-12-29T09:58:35.780Z,99.99
2018-12-29T09:59:36.913Z,99.99
2018-12-29T10:00:37.320Z,99.99
2018-12-29T10:01:38.288Z,99.99
2018-12-29T10:02:38.701Z,99.99
2018-12-29T10:03:39.671Z,99.99
2018-12-29T10:04:40.081Z,99.99
2018-12-29T10:05:41.210Z,99.99
2018-12-29T10:06:41.971Z,99.62
2018-12-29T10:07:43.381Z,99.99
2018-12-29T10:08:44.494Z,99.99
2018-12-29T10:09:44.895Z,99.99
2018-12-29T10:10:45.303Z,99.99
2018-12-29T10:11:46.432Z,99.99
2018-12-29T10:12:46.840Z,99.99
2018-12-29T10:13:47.524Z,99.99
2018-12-29T10:14:48.484Z,99.99
2018-12-29T10:15:49.889Z,99.99
2018-12-29T10:16:50.023Z,99.99
2018-12-29T10:17:50.985Z,99.99
2018-12-29T10:18:51.371Z,99.99
2018-12-29T10:19:52.067Z,99.99
2018-12-29T10:20:52.751Z,99.99
2018-12-29T10:21:54.439Z,99.99
2018-12-29T10:22:54.871Z,99.99
2018-12-29T10:23:56.562Z,99.99
2018-12-29T10:24:56.688Z,99.99
2018-12-29T10:25:58.096Z,99.99
2018-12-29T10:26:58.785Z,99.99
2018-12-29T10:27:59.541Z,99.99
2018-12-29T10:28:59.795Z,99.99
2018-12-29T10:30:00.489Z,99.99
2018-12-29T10:31:01.195Z,99.99
2018-12-29T10:32:01.881Z,99.99
2018-12-29T10:33:02.846Z,99.99
2018-12-29T10:34:02.975Z,99.99
2018-12-29T10:35:04.386Z,99.99
2018-12-29T10:36:04.796Z,99.99
2018-12-29T10:37:05.207Z,99.99
2018-12-29T10:38:05.891Z,99.99
2018-12-29T10:39:06.447Z,99.99
2018-12-29T10:40:07.137Z,99.99
2018-12-29T10:41:07.819Z,99.99
2018-12-29T10:42:08.230Z,99.99
2018-12-29T10:43:09.428Z,99.99
2018-12-29T10:44:10.410Z,99.99
2018-12-29T10:45:11.099Z,99.33
2018-12-29T10:46:12.229Z,99.62
2018-12-29T10:47:13.362Z,99.24
2018-12-29T10:48:14.052Z,99.24
2018-12-29T10:49:15.170Z,98.67
2018-12-29T10:50:15.301Z,98.67
2018-12-29T10:51:15.991Z,98.77
2018-12-29T10:52:17.231Z,98.48
2018-12-29T10:53:17.640Z,98.86
2018-12-29T10:54:18.327Z,98.96
2018-12-29T10:55:19.571Z,99.24
2018-12-29T10:56:20.548Z,98.96
2018-12-29T10:57:20.958Z,99.43
2018-12-29T10:58:21.930Z,99.99
2018-12-29T10:59:23.376Z,99.99
2018-12-29T11:00:24.075Z,99.99
2018-12-29T11:01:25.046Z,99.99
2018-12-29T11:02:26.021Z,99.99
2018-12-29T11:03:26.715Z,99.99
2018-12-29T11:04:27.403Z,99.99
2018-12-29T11:05:28.093Z,99.99
2018-12-29T11:06:29.227Z,99.99
2018-12-29T11:07:29.913Z,99.99
2018-12-29T11:08:30.325Z,99.99
2018-12-29T11:09:31.150Z,99.99
2018-12-29T11:10:31.610Z,98.91
2018-12-29T11:11:32.850Z,99.43
2018-12-29T11:12:32.993Z,99.48
2018-12-29T11:13:33.955Z,98.72
2018-12-29T11:14:34.652Z,98.44
2018-12-29T11:15:35.336Z,98.06
2018-12-29T11:16:35.749Z,97.87
2018-12-29T11:17:43.304Z,97.11
2018-12-29T11:17:48.473Z,96.83
2018-12-29T11:18:49.510Z,96.45
2018-12-29T11:19:51.041Z,96.07
2018-12-29T11:20:51.013Z,95.69
2018-12-29T11:21:51.720Z,95.88
2018-12-29T11:22:52.684Z,95.97
2018-12-29T11:23:53.373Z,96.64
2018-12-29T11:24:54.060Z,95.97
2018-12-29T11:25:54.751Z,96.07
2018-12-29T11:26:55.438Z,95.93
2018-12-29T11:27:55.411Z,95.45
2018-12-29T11:28:56.506Z,94.89
2018-12-29T11:29:57.749Z,94.13
2018-12-29T11:30:58.715Z,93.65
2018-12-29T11:31:58.853Z,92.61
2018-12-29T11:33:00.101Z,92.61
2018-12-29T11:34:00.595Z,92.9
2018-12-29T11:35:02.009Z,91.43
2018-12-29T11:36:02.261Z,93.51
2018-12-29T11:37:02.679Z,92.47
2018-12-29T11:38:03.389Z,92.66
2018-12-29T11:39:04.783Z,91.43
2018-12-29T11:40:05.476Z,92
2018-12-29T11:41:06.889Z,92.85
2018-12-29T11:42:07.354Z,92.19
2018-12-29T11:43:08.044Z,91.14
2018-12-29T11:44:08.178Z,90.34
2018-12-29T11:45:09.612Z,90.24
2018-12-29T11:46:10.303Z,89.2
2018-12-29T11:47:10.556Z,88.35
2018-12-29T11:48:10.691Z,88.25
2018-12-29T11:49:18.966Z,88.06
2018-12-29T11:49:24.475Z,88.16
2018-12-29T11:50:25.610Z,87.59
2018-12-29T11:51:26.341Z,86.35
2018-12-29T11:52:27.808Z,86.26
2018-12-29T11:53:29.099Z,86.35
2018-12-29T11:54:29.407Z,86.74
2018-12-29T11:55:31.118Z,86.93
2018-12-29T11:56:31.278Z,87.59
2018-12-29T11:57:32.199Z,88.25
2018-12-29T11:58:32.665Z,87.77
2018-12-29T11:59:34.086Z,87.77
2018-12-29T12:00:35.256Z,89.2
2018-12-29T12:01:35.984Z,89.2
2018-12-29T12:02:36.721Z,89.96
2018-12-29T12:03:37.191Z,88.54
2018-12-29T12:04:37.659Z,87.63
2018-12-29T12:05:38.802Z,86.59
2018-12-29T12:06:39.665Z,86.02
2018-12-29T12:07:39.965Z,85.26
2018-12-29T12:08:40.697Z,85.83
2018-12-29T12:09:41.456Z,86.11
2018-12-29T12:10:41.789Z,85.36
2018-12-29T12:11:42.514Z,84.59
2018-12-29T12:12:43.592Z,85.17
2018-12-29T12:13:44.319Z,84.69
2018-12-29T12:14:45.072Z,84.98
2018-12-29T12:15:46.456Z,85.93
2018-12-29T12:16:47.196Z,85.83
2018-12-29T12:17:47.677Z,84.59
2018-12-29T12:18:48.475Z,85.26
2018-12-29T12:19:49.550Z,84.88
2018-12-29T12:20:50.006Z,84.59
2018-12-29T12:21:50.457Z,84.88
2018-12-29T12:22:51.196Z,85.17
2018-12-29T12:23:52.513Z,85.07
2018-12-29T12:24:52.694Z,85.83
2018-12-29T12:25:54.103Z,85.26
2018-12-29T12:26:54.614Z,84.88
2018-12-29T12:27:54.834Z,85.83
2018-12-29T12:28:56.371Z,86.59
2018-12-29T12:29:56.683Z,86.02
2018-12-29T12:30:58.389Z,85.78
2018-12-29T12:31:59.317Z,86.07
2018-12-29T12:33:00.073Z,86.45
2018-12-29T12:34:01.458Z,87.97
2018-12-29T12:35:02.411Z,87.77
2018-12-29T12:36:03.272Z,88.54
2018-12-29T12:37:03.513Z,87.35
2018-12-29T12:38:05.233Z,86.35
2018-12-29T12:39:05.913Z,86.64
2018-12-29T12:40:06.579Z,86.68
2018-12-29T12:41:07.294Z,86.68
2018-12-29T12:42:07.630Z,86.3
2018-12-29T12:43:08.662Z,85.17
2018-12-29T12:44:10.178Z,84.98
2018-12-29T12:45:09.999Z,84.69
2018-12-29T12:46:10.251Z,85.83
2018-12-29T12:47:10.604Z,85.83
2018-12-29T12:48:11.364Z,86.55
2018-12-29T12:49:11.864Z,86.16
2018-12-29T12:50:12.974Z,87.21
2018-12-29T12:51:13.818Z,86.83
2018-12-29T12:52:14.580Z,86.83
2018-12-29T12:53:15.527Z,87.12
2018-12-29T12:54:15.989Z,88.54
2018-12-29T12:55:16.449Z,88.44
2018-12-29T12:56:17.446Z,87.87
2018-12-29T12:57:19.867Z,87.97
2018-12-29T12:58:20.744Z,88.73
2018-12-29T12:59:21.734Z,87.77